createdAt,value
2019-02-23T00:01:38.171Z,125.37
2019-02-23T00:04:08.315Z,124.00
2019-02-23T00:06:38.462Z,125.37
2019-02-23T00:09:08.376Z,127.97
2019-02-23T00:11:38.588Z,124.40
2019-02-23T00:14:09.124Z,122.00
2019-02-23T00:16:39.199Z,119.57
2019-02-23T00:19:09.082Z,121.43
2019-02-23T00:21:39.150Z,128.87
2019-02-23T00:24:09.316Z,120.23
2019-02-23T00:26:39.430Z,122.03
2019-02-23T00:29:09.299Z,120.97
2019-02-23T00:31:39.239Z,121.07
2019-02-23T00:34:09.335Z,120.47
2019-02-23T00:36:39.420Z,118.67
2019-02-23T00:39:09.775Z,119.70
2019-02-23T00:41:39.951Z,118.47
2019-02-23T00:44:11.083Z,118.90
2019-02-23T00:46:41.043Z,120.23
2019-02-23T00:49:11.161Z,157.00
2019-02-23T00:51:41.157Z,124.43
2019-02-23T00:54:11.102Z,117.07
2019-02-23T00:56:41.145Z,121.37
2019-02-23T00:59:11.391Z,118.87
2019-02-23T01:01:41.524Z,117.80
2019-02-23T01:04:11.688Z,119.77
2019-02-23T01:06:41.896Z,116.70
2019-02-23T01:09:12.284Z,116.10
2019-02-23T01:11:42.368Z,114.53
2019-02-23T01:14:12.502Z,115.40
2019-02-23T01:16:42.540Z,115.23
2019-02-23T01:19:13.063Z,117.80
2019-02-23T01:21:43.141Z,117.93
2019-02-23T01:24:13.253Z,114.97
2019-02-23T01:26:43.315Z,117.67
2019-02-23T01:29:13.364Z,115.70
2019-02-23T01:31:43.564Z,113.43
2019-02-23T01:34:13.652Z,118.17
2019-02-23T01:36:43.779Z,116.77
2019-02-23T01:39:14.032Z,115.60
2019-02-23T01:41:44.212Z,117.43
2019-02-23T01:44:14.416Z,115.37
2019-02-23T01:46:44.355Z,115.50
2019-02-23T01:49:14.404Z,116.33
2019-02-23T01:51:44.351Z,123.97
2019-02-23T01:54:14.720Z,113.80
2019-02-23T01:56:44.823Z,117.63
2019-02-23T01:59:14.936Z,114.37
2019-02-23T02:01:44.969Z,117.77
2019-02-23T02:04:14.984Z,113.67
2019-02-23T02:06:45.120Z,116.77
2019-02-23T02:09:15.236Z,114.37
2019-02-23T02:11:45.370Z,116.60
2019-02-23T02:14:15.519Z,116.70
2019-02-23T02:16:45.644Z,115.73
2019-02-23T02:19:15.808Z,116.53
2019-02-23T02:21:45.894Z,115.10
2019-02-23T02:24:16.021Z,114.83
2019-02-23T02:26:46.071Z,113.03
2019-02-23T02:29:16.276Z,115.30
2019-02-23T02:31:46.442Z,113.73
2019-02-23T02:34:18.057Z,118.53
2019-02-23T02:36:48.452Z,116.27
2019-02-23T02:39:18.388Z,116.37
2019-02-23T02:41:48.444Z,113.80
2019-02-23T02:44:18.567Z,114.67
2019-02-23T02:46:48.609Z,117.00
2019-02-23T02:49:18.570Z,113.67
2019-02-23T02:51:48.532Z,114.20
2019-02-23T02:54:18.679Z,113.90
2019-02-23T02:56:48.944Z,113.67
2019-02-23T02:59:19.095Z,113.57
2019-02-23T03:01:49.167Z,112.10
2019-02-23T03:04:19.171Z,116.37
2019-02-23T03:06:49.156Z,115.17
2019-02-23T03:09:19.260Z,114.67
2019-02-23T03:11:49.361Z,113.17
2019-02-23T03:14:19.418Z,113.20
2019-02-23T03:16:49.493Z,116.83
2019-02-23T03:19:20.569Z,116.23
2019-02-23T03:21:50.724Z,116.87
2019-02-23T03:24:20.955Z,113.27
2019-02-23T03:26:51.100Z,116.20
2019-02-23T03:29:21.120Z,117.07
2019-02-23T03:31:51.381Z,114.30
2019-02-23T03:34:21.483Z,115.33
2019-02-23T03:36:51.668Z,118.90
2019-02-23T03:39:21.829Z,116.57
2019-02-23T03:41:52.055Z,111.90
2019-02-23T03:44:22.267Z,115.07
2019-02-23T03:46:52.809Z,115.40
2019-02-23T03:49:22.836Z,114.00
2019-02-23T03:51:52.792Z,111.93
2019-02-23T03:54:22.884Z,114.20
2019-02-23T03:56:52.899Z,115.07
2019-02-23T03:59:22.948Z,115.30
2019-02-23T04:01:52.918Z,115.17
2019-02-23T04:04:22.947Z,112.90
2019-02-23T04:06:52.952Z,113.73
2019-02-23T04:09:22.852Z,114.70
2019-02-23T04:11:52.843Z,117.03
2019-02-23T04:14:22.891Z,123.60
2019-02-23T04:16:53.039Z,113.33
2019-02-23T04:19:23.035Z,113.50
2019-02-23T04:21:53.137Z,119.87
2019-02-23T04:24:23.388Z,118.33
2019-02-23T04:26:53.697Z,113.53
2019-02-23T04:29:23.826Z,114.67
2019-02-23T04:31:53.988Z,116.80
2019-02-23T04:34:24.163Z,112.23
2019-02-23T04:36:54.215Z,119.70
2019-02-23T04:39:24.314Z,114.30
2019-02-23T04:41:54.433Z,119.43
2019-02-23T04:44:24.547Z,114.10
2019-02-23T04:46:54.512Z,113.67
2019-02-23T04:49:26.044Z,117.60
2019-02-23T04:51:56.339Z,117.13
2019-02-23T04:54:26.413Z,114.47
2019-02-23T04:56:56.539Z,114.70
2019-02-23T04:59:26.593Z,116.97
2019-02-23T05:01:56.996Z,119.43
2019-02-23T05:04:27.017Z,129.73
2019-02-23T05:06:57.158Z,116.20
2019-02-23T05:09:27.291Z,119.20
2019-02-23T05:11:57.488Z,115.23
2019-02-23T05:14:27.618Z,114.50
2019-02-23T05:16:57.714Z,117.80
2019-02-23T05:19:27.782Z,113.80
2019-02-23T05:21:57.680Z,116.03
2019-02-23T05:24:27.600Z,114.23
2019-02-23T05:26:57.519Z,118.23
2019-02-23T05:29:27.724Z,117.30
2019-02-23T05:31:57.708Z,139.53
2019-02-23T05:34:27.811Z,114.43
2019-02-23T05:36:57.940Z,117.47
2019-02-23T05:39:28.127Z,112.87
2019-02-23T05:41:58.184Z,118.87
2019-02-23T05:44:28.280Z,114.77
2019-02-23T05:46:58.257Z,125.43
2019-02-23T05:49:29.568Z,123.13
2019-02-23T05:51:59.631Z,122.33
2019-02-23T05:54:30.785Z,111.67
2019-02-23T05:57:00.932Z,110.97
2019-02-23T05:59:30.946Z,112.13
2019-02-23T06:02:01.028Z,110.57
2019-02-23T06:04:31.072Z,110.37
2019-02-23T06:07:01.240Z,110.03
2019-02-23T06:09:31.152Z,109.93
2019-02-23T06:12:01.191Z,109.63
2019-02-23T06:14:31.370Z,109.27
2019-02-23T06:17:03.984Z,109.83
2019-02-23T06:19:33.289Z,108.73
2019-02-23T06:22:03.521Z,110.77
2019-02-23T06:24:33.789Z,109.13
2019-02-23T06:27:03.760Z,108.90
2019-02-23T06:29:33.834Z,108.17
2019-02-23T06:32:03.957Z,110.17
2019-02-23T06:34:34.127Z,110.13
2019-02-23T06:37:04.284Z,109.00
2019-02-23T06:39:34.511Z,108.77
2019-02-23T06:42:04.771Z,109.37
2019-02-23T06:44:34.941Z,107.73
2019-02-23T06:47:05.956Z,111.03
2019-02-23T06:49:36.074Z,109.67
2019-02-23T06:52:06.318Z,110.73
2019-02-23T06:54:36.433Z,110.43
2019-02-23T06:57:06.519Z,109.67
2019-02-23T06:59:36.593Z,108.07
2019-02-23T07:02:06.720Z,136.57
2019-02-23T07:04:37.804Z,108.97
2019-02-23T07:07:07.858Z,108.60
2019-02-23T07:09:37.840Z,109.60
2019-02-23T07:12:07.899Z,109.87
2019-02-23T07:14:37.953Z,111.23
2019-02-23T07:17:08.075Z,109.13
2019-02-23T07:19:38.117Z,110.63
2019-02-23T07:22:15.471Z,110.27
2019-02-23T07:24:39.874Z,112.33
2019-02-23T07:27:09.912Z,113.33
2019-02-23T07:29:39.821Z,112.17
2019-02-23T07:32:09.832Z,110.33
2019-02-23T07:34:40.083Z,109.03
2019-02-23T07:37:10.221Z,114.77
2019-02-23T07:39:40.319Z,108.43
2019-02-23T07:42:10.412Z,107.53
2019-02-23T07:44:40.560Z,108.83
2019-02-23T07:47:10.632Z,109.60
2019-02-23T07:49:41.599Z,111.70
2019-02-23T07:52:11.642Z,111.03
2019-02-23T07:54:41.636Z,113.53
2019-02-23T07:57:13.280Z,110.83
2019-02-23T07:59:43.328Z,109.37
2019-02-23T08:02:13.456Z,107.90
2019-02-23T08:04:43.532Z,110.40
2019-02-23T08:07:13.637Z,110.80
2019-02-23T08:09:43.818Z,112.07
2019-02-23T08:12:14.051Z,111.23
2019-02-23T08:14:44.289Z,110.97
2019-02-23T08:17:14.330Z,108.57
2019-02-23T08:19:44.349Z,116.13
2019-02-23T08:22:16.039Z,114.33
2019-02-23T08:24:46.260Z,118.83
2019-02-23T08:27:16.339Z,116.17
2019-02-23T08:29:46.436Z,125.93
2019-02-23T08:32:16.605Z,125.70
2019-02-23T08:34:49.593Z,125.20
2019-02-23T08:37:19.494Z,122.90
2019-02-23T08:39:49.579Z,121.50
2019-02-23T08:42:19.631Z,126.77
2019-02-23T08:44:49.707Z,128.93
2019-02-23T08:47:19.828Z,127.33
2019-02-23T08:49:49.870Z,128.87
2019-02-23T08:52:20.349Z,126.80
2019-02-23T08:54:50.467Z,125.93
2019-02-23T08:57:20.583Z,128.40
2019-02-23T08:59:50.812Z,145.83
2019-02-23T09:02:20.893Z,134.60
2019-02-23T09:04:51.254Z,129.70
2019-02-23T09:07:21.331Z,134.57
2019-02-23T09:09:51.376Z,134.60
2019-02-23T09:12:21.506Z,127.97
2019-02-23T09:14:51.598Z,135.23
2019-02-23T09:17:21.703Z,128.40
2019-02-23T09:19:51.812Z,130.97
2019-02-23T09:22:21.884Z,125.37
2019-02-23T09:24:51.955Z,126.73
2019-02-23T09:27:22.140Z,128.27
2019-02-23T09:29:52.267Z,127.57
2019-02-23T09:32:22.356Z,126.67
2019-02-23T09:34:52.451Z,126.20
2019-02-23T09:37:22.584Z,127.63
2019-02-23T09:39:52.814Z,127.00
2019-02-23T09:42:22.756Z,124.47
2019-02-23T09:44:52.768Z,125.47
2019-02-23T09:47:23.980Z,125.33
2019-02-23T09:49:54.070Z,123.60
2019-02-23T09:52:24.153Z,137.97
2019-02-23T09:54:54.153Z,125.37
2019-02-23T09:57:24.282Z,126.77
2019-02-23T09:59:54.286Z,127.20
2019-02-23T10:02:24.419Z,122.13
2019-02-23T10:04:54.636Z,124.80
2019-02-23T10:07:24.806Z,124.50
2019-02-23T10:09:56.533Z,122.20
2019-02-23T10:12:27.579Z,124.73
2019-02-23T10:14:58.421Z,123.80
2019-02-23T10:17:28.863Z,123.33
2019-02-23T10:19:59.565Z,137.13
2019-02-23T10:22:30.414Z,134.90
2019-02-23T10:25:01.261Z,144.13
2019-02-23T10:27:32.161Z,128.17
2019-02-23T10:30:02.416Z,123.47
2019-02-23T10:32:32.585Z,125.67
2019-02-23T10:35:02.605Z,126.57
2019-02-23T10:37:32.611Z,124.20
2019-02-23T10:40:02.693Z,123.87
2019-02-23T10:42:33.812Z,127.43
2019-02-23T10:45:04.055Z,123.50
2019-02-23T10:47:35.146Z,128.63
2019-02-23T10:50:05.816Z,131.00
2019-02-23T10:52:35.845Z,125.70
2019-02-23T10:55:07.228Z,127.67
2019-02-23T10:57:37.520Z,129.33
2019-02-23T11:00:12.205Z,127.13
2019-02-23T11:02:42.457Z,135.27
2019-02-23T11:05:12.715Z,123.03
2019-02-23T11:07:42.911Z,123.37
2019-02-23T11:10:13.400Z,124.93
2019-02-23T11:12:43.502Z,124.10
2019-02-23T11:15:14.332Z,126.87
2019-02-23T11:17:45.511Z,123.73
2019-02-23T11:20:17.788Z,123.60
2019-02-23T11:22:47.885Z,121.43
2019-02-23T11:25:18.011Z,124.37
2019-02-23T11:27:48.155Z,122.60
2019-02-23T11:30:18.275Z,128.43
2019-02-23T11:32:48.428Z,125.53
2019-02-23T11:35:18.676Z,127.53
2019-02-23T11:37:48.735Z,125.83
2019-02-23T11:40:18.759Z,125.63
2019-02-23T11:42:48.927Z,127.77
2019-02-23T11:45:19.132Z,125.37
2019-02-23T11:47:49.431Z,127.10
2019-02-23T11:50:19.650Z,124.17
2019-02-23T11:52:49.779Z,123.43
2019-02-23T11:55:19.996Z,123.77
2019-02-23T11:57:50.191Z,125.70
2019-02-23T12:00:20.278Z,127.23
2019-02-23T12:02:52.789Z,125.63
2019-02-23T12:05:22.243Z,122.97
2019-02-23T12:07:52.387Z,122.80
2019-02-23T12:10:22.366Z,124.93
2019-02-23T12:12:52.442Z,126.67
2019-02-23T12:15:22.602Z,124.90
2019-02-23T12:17:52.596Z,126.93
2019-02-23T12:20:22.715Z,128.23
2019-02-23T12:22:52.790Z,130.77
2019-02-23T12:25:23.033Z,129.37
2019-02-23T12:27:53.168Z,127.73
2019-02-23T12:30:23.224Z,126.73
2019-02-23T12:32:53.369Z,131.07
2019-02-23T12:35:23.426Z,127.90
2019-02-23T12:37:53.720Z,127.77
2019-02-23T12:40:23.828Z,130.43
2019-02-23T12:42:53.872Z,127.20
2019-02-23T12:45:24.069Z,132.07
2019-02-23T12:47:54.391Z,128.73
2019-02-23T12:50:24.546Z,138.53
2019-02-23T12:52:59.779Z,138.77
2019-02-23T12:55:29.460Z,131.73
2019-02-23T12:58:00.036Z,126.03
2019-02-23T13:00:30.125Z,128.53
2019-02-23T13:03:01.925Z,131.30
2019-02-23T13:05:32.036Z,126.67
2019-02-23T13:08:02.244Z,130.70
2019-02-23T13:10:32.306Z,124.73
2019-02-23T13:13:36.433Z,123.33
2019-02-23T13:16:11.924Z,126.60
2019-02-23T13:19:23.188Z,127.33
2019-02-23T13:22:14.033Z,127.23
2019-02-23T13:25:08.040Z,123.43
2019-02-23T13:28:03.504Z,127.20
2019-02-23T13:31:14.869Z,129.00
2019-02-23T13:34:43.820Z,125.43
2019-02-23T13:37:39.571Z,121.83
2019-02-23T13:40:31.917Z,123.57
2019-02-23T13:43:37.376Z,126.23
2019-02-23T13:46:53.248Z,124.57
2019-02-23T13:49:34.107Z,125.23
2019-02-23T13:52:30.784Z,123.57
2019-02-23T13:55:52.876Z,123.30
2019-02-23T13:58:34.935Z,125.07
2019-02-23T14:01:26.347Z,126.17
2019-02-23T14:04:17.535Z,125.50
2019-02-23T14:07:09.433Z,121.80
2019-02-23T14:10:29.456Z,121.97
2019-02-23T14:13:34.031Z,122.33
2019-02-23T14:16:32.060Z,129.73
2019-02-23T14:19:18.081Z,121.17
2019-02-23T14:22:25.387Z,123.97
2019-02-23T14:25:38.599Z,122.07
2019-02-23T14:28:52.659Z,127.73
2019-02-23T14:31:48.771Z,123.47
2019-02-23T14:35:05.352Z,127.97
2019-02-23T14:38:01.624Z,126.30
2019-02-23T14:41:08.423Z,125.27
2019-02-23T14:44:24.504Z,129.87
2019-02-23T14:47:18.909Z,123.87
2019-02-23T14:50:00.316Z,127.90
2019-02-23T14:53:20.152Z,125.83
2019-02-23T14:56:46.563Z,123.27
2019-02-23T15:00:06.317Z,125.50
2019-02-23T15:03:07.033Z,122.00
2019-02-23T15:05:55.624Z,123.90
2019-02-23T15:08:42.711Z,123.43
2019-02-23T15:11:32.332Z,122.20
2019-02-23T15:14:23.457Z,124.07
2019-02-23T15:17:27.673Z,123.87
2019-02-23T15:20:40.679Z,133.00
2019-02-23T15:23:16.516Z,125.03
2019-02-23T15:26:16.140Z,123.60
2019-02-23T15:29:08.902Z,125.57
2019-02-23T15:32:07.096Z,124.93
2019-02-23T15:35:30.279Z,128.90
2019-02-23T15:38:55.300Z,122.30
2019-02-23T15:41:55.998Z,121.83
2019-02-23T15:45:25.045Z,123.80
2019-02-23T15:48:11.171Z,122.87
2019-02-23T15:50:41.316Z,123.40
2019-02-23T15:53:11.564Z,123.67
2019-02-23T15:55:42.471Z,121.73
2019-02-23T15:58:12.504Z,123.10
2019-02-23T16:00:43.090Z,122.97
2019-02-23T16:03:13.229Z,126.10
2019-02-23T16:05:43.225Z,125.67
2019-02-23T16:08:13.275Z,126.40
2019-02-23T16:10:43.472Z,132.57
2019-02-23T16:13:14.547Z,122.30
2019-02-23T16:15:44.590Z,127.13
2019-02-23T16:18:14.954Z,122.73
2019-02-23T16:20:44.993Z,119.63
2019-02-23T16:23:14.973Z,121.13
2019-02-23T16:25:45.466Z,122.00
2019-02-23T16:28:15.519Z,124.70
2019-02-23T16:30:45.716Z,122.33
2019-02-23T16:33:15.783Z,121.80
2019-02-23T16:35:45.828Z,121.47
2019-02-23T16:38:15.996Z,121.00
2019-02-23T16:40:46.143Z,121.70
2019-02-23T16:43:19.616Z,121.73
2019-02-23T16:45:50.864Z,123.50
2019-02-23T16:48:21.059Z,123.20
2019-02-23T16:50:51.180Z,122.07
2019-02-23T16:53:21.248Z,124.00
2019-02-23T16:55:51.379Z,120.00
2019-02-23T16:58:21.515Z,122.60
2019-02-23T17:00:51.560Z,124.77
2019-02-23T17:03:21.598Z,122.87
2019-02-23T17:05:51.663Z,121.47
2019-02-23T17:08:21.997Z,122.67
2019-02-23T17:10:52.099Z,124.23
2019-02-23T17:13:23.201Z,122.47
2019-02-23T17:15:53.127Z,122.53
2019-02-23T17:18:23.180Z,120.57
2019-02-23T17:20:53.365Z,123.97
2019-02-23T17:23:24.067Z,123.83
2019-02-23T17:26:04.183Z,120.23
2019-02-23T17:28:27.912Z,119.67
2019-02-23T17:30:58.835Z,120.83
2019-02-23T17:33:29.147Z,119.63
2019-02-23T17:35:59.146Z,127.33
2019-02-23T17:38:29.368Z,119.50
2019-02-23T17:40:59.473Z,119.87
2019-02-23T17:43:30.098Z,119.13
2019-02-23T17:46:00.400Z,122.93
2019-02-23T17:51:01.663Z,117.40
2019-02-23T17:53:32.137Z,129.70
2019-02-23T17:56:02.447Z,121.83
2019-02-23T17:58:32.697Z,120.53
2019-02-23T18:01:03.016Z,118.83
2019-02-23T18:03:33.089Z,120.07
2019-02-23T18:06:03.482Z,134.23
2019-02-23T18:08:33.499Z,121.00
2019-02-23T18:11:03.561Z,120.27
2019-02-23T18:13:33.953Z,125.93
2019-02-23T18:16:04.120Z,124.63
2019-02-23T18:18:34.229Z,117.57
2019-02-23T18:21:04.389Z,126.70
2019-02-23T18:23:34.513Z,122.73
2019-02-23T18:26:04.676Z,120.20
2019-02-23T18:28:34.687Z,126.57
2019-02-23T18:31:04.884Z,122.10
2019-02-23T18:33:35.132Z,120.47
2019-02-23T18:36:05.248Z,120.40
2019-02-23T18:38:35.404Z,118.87
2019-02-23T18:41:05.561Z,126.80
2019-02-23T18:43:35.696Z,118.83
2019-02-23T18:46:05.669Z,120.83
2019-02-23T18:48:35.988Z,122.37
2019-02-23T18:51:06.128Z,120.80
2019-02-23T18:53:36.229Z,120.23
2019-02-23T18:56:07.009Z,118.03
2019-02-23T18:58:37.693Z,117.70
2019-02-23T19:01:07.971Z,122.03
2019-02-23T19:03:38.064Z,121.40
2019-02-23T19:06:08.556Z,120.93
2019-02-23T19:08:38.785Z,118.10
2019-02-23T19:11:08.944Z,117.60
2019-02-23T19:13:38.860Z,122.33
2019-02-23T19:16:11.048Z,122.80
2019-02-23T19:18:40.994Z,121.27
2019-02-23T19:21:11.972Z,129.83
2019-02-23T19:23:41.952Z,140.47
2019-02-23T19:26:12.139Z,124.17
2019-02-23T19:28:43.325Z,122.83
2019-02-23T19:31:13.730Z,118.37
2019-02-23T19:33:43.815Z,118.47
2019-02-23T19:36:13.964Z,119.23
2019-02-23T19:38:44.136Z,117.03
2019-02-23T19:41:14.271Z,121.50
2019-02-23T19:43:44.391Z,116.10
2019-02-23T19:46:14.492Z,119.17
2019-02-23T19:48:44.596Z,117.83
2019-02-23T19:51:14.756Z,119.70
2019-02-23T19:53:44.836Z,117.33
2019-02-23T19:56:16.159Z,122.80
2019-02-23T19:58:46.441Z,115.50
2019-02-23T20:01:16.620Z,115.50
2019-02-23T20:03:46.713Z,115.67
2019-02-23T20:06:16.876Z,116.10
2019-02-23T20:08:47.043Z,121.93
2019-02-23T20:11:17.381Z,116.17
2019-02-23T20:13:47.447Z,116.83
2019-02-23T20:16:17.927Z,123.13
2019-02-23T20:18:48.016Z,119.73
2019-02-23T20:21:18.353Z,115.87
2019-02-23T20:23:48.470Z,121.80
2019-02-23T20:26:18.703Z,118.50
2019-02-23T20:28:48.827Z,119.17
2019-02-23T20:31:18.751Z,122.20
2019-02-23T20:33:48.811Z,118.27
2019-02-23T20:36:18.872Z,118.63
2019-02-23T20:38:48.963Z,114.90
2019-02-23T20:41:19.044Z,128.10
2019-02-23T20:43:49.208Z,116.40
2019-02-23T20:46:19.419Z,116.20
2019-02-23T20:48:49.632Z,119.27
2019-02-23T20:51:19.745Z,117.50
2019-02-23T20:53:49.836Z,114.90
2019-02-23T20:56:19.948Z,121.50
2019-02-23T20:58:50.305Z,114.73
2019-02-23T21:01:20.412Z,117.17
2019-02-23T21:03:50.448Z,117.47
2019-02-23T21:06:22.144Z,121.57
2019-02-23T21:08:52.320Z,116.47
2019-02-23T21:11:22.500Z,115.47
2019-02-23T21:13:52.456Z,116.07
2019-02-23T21:16:22.556Z,114.10
2019-02-23T21:18:52.540Z,121.73
2019-02-23T21:21:22.823Z,115.80
2019-02-23T21:23:52.823Z,118.77
2019-02-23T21:26:23.256Z,115.67
2019-02-23T21:28:53.444Z,114.87
2019-02-23T21:31:23.695Z,114.50
2019-02-23T21:33:53.759Z,114.57
2019-02-23T21:36:23.764Z,119.47
2019-02-23T21:38:53.975Z,115.57
2019-02-23T21:41:24.152Z,114.03
2019-02-23T21:43:54.235Z,117.03
2019-02-23T21:46:24.220Z,116.27
2019-02-23T21:48:54.450Z,116.90
2019-02-23T21:51:24.632Z,118.10
2019-02-23T21:53:54.812Z,113.33
2019-02-23T21:56:24.932Z,125.27
2019-02-23T21:58:55.108Z,115.60
2019-02-23T22:01:25.301Z,117.50
2019-02-23T22:03:55.384Z,117.10
2019-02-23T22:06:25.445Z,115.67
2019-02-23T22:08:55.527Z,115.67
2019-02-23T22:11:25.679Z,115.77
2019-02-23T22:13:55.805Z,119.77
2019-02-23T22:16:25.889Z,119.67
2019-02-23T22:18:55.950Z,123.30
2019-02-23T22:21:25.986Z,117.90
2019-02-23T22:23:55.907Z,116.07
2019-02-23T22:26:25.975Z,116.53
2019-02-23T22:28:57.192Z,115.67
2019-02-23T22:31:27.310Z,117.77
2019-02-23T22:33:57.194Z,113.40
2019-02-23T22:36:27.255Z,115.20
2019-02-23T22:38:57.247Z,116.10
2019-02-23T22:41:27.580Z,113.93
2019-02-23T22:43:57.634Z,115.20
2019-02-23T22:46:27.744Z,119.10
2019-02-23T22:48:57.898Z,116.43
2019-02-23T22:51:27.950Z,115.27
2019-02-23T22:53:57.985Z,116.17
2019-02-23T22:56:28.036Z,112.30
2019-02-23T22:58:58.137Z,114.20
2019-02-23T23:01:28.263Z,116.20
2019-02-23T23:03:59.634Z,115.77
2019-02-23T23:06:29.628Z,118.43
2019-02-23T23:08:59.688Z,117.40
2019-02-23T23:11:29.723Z,116.27
2019-02-23T23:13:59.852Z,114.00
2019-02-23T23:16:30.032Z,115.87
2019-02-23T23:19:00.067Z,111.70
2019-02-23T23:21:30.039Z,116.90
2019-02-23T23:24:00.260Z,113.93
2019-02-23T23:26:30.449Z,114.63
2019-02-23T23:29:00.594Z,114.87
2019-02-23T23:31:30.615Z,112.83
2019-02-23T23:34:00.840Z,114.27
2019-02-23T23:36:31.949Z,116.23
2019-02-23T23:39:02.083Z,114.30
2019-02-23T23:41:33.846Z,113.73
2019-02-23T23:44:03.984Z,115.67
2019-02-23T23:46:34.291Z,113.63
2019-02-23T23:49:04.332Z,113.63
2019-02-23T23:51:34.556Z,113.93
2019-02-23T23:54:04.664Z,112.73
2019-02-23T23:56:34.771Z,118.40
2019-02-23T23:59:04.905Z,113.67
